Time;durP1;ratioP1;P1;durP2;ratioP2;P2;SDS_P1;SDS_P2;PMS_P1;PMS_P2;Temp;Humidity;BMP_temperature;BMP_pressure;BME280_temperature;BME280_humidity;BME280_pressure;Samples;Min_cycle;Max_cycle;Signal;HPM_P1;HPM_P2
2021/07/23 00:00:55;;;;;;;8.40;7.13;;;19.80;88.00;;;;;;6104900;23;20679;-84
2021/07/23 00:03:24;;;;;;;7.87;6.70;;;19.80;88.10;;;;;;6101189;23;20173;-82
2021/07/23 00:05:53;;;;;;;8.83;6.93;;;19.80;88.30;;;;;;6103753;23;20661;-81
2021/07/23 00:08:21;;;;;;;8.37;7.27;;;19.80;88.30;;;;;;6098541;23;20981;-85
2021/07/23 00:10:50;;;;;;;9.23;7.10;;;19.80;88.60;;;;;;6112056;23;20219;-81
2021/07/23 00:13:18;;;;;;;8.00;6.87;;;19.80;88.30;;;;;;6109751;23;20169;-82
2021/07/23 00:15:49;;;;;;;8.77;7.27;;;19.70;88.50;;;;;;6099566;23;20173;-82
2021/07/23 00:18:18;;;;;;;8.53;7.43;;;19.70;88.50;;;;;;6096847;23;20585;-85
2021/07/23 00:20:52;;;;;;;9.60;7.37;;;19.80;88.20;;;;;;6113517;23;20173;-83
2021/07/23 00:23:21;;;;;;;9.50;7.67;;;19.70;88.10;;;;;;6121112;23;20189;-85
2021/07/23 00:25:52;;;;;;;11.00;7.87;;;19.70;88.50;;;;;;6117742;23;20260;-80
2021/07/23 00:28:20;;;;;;;9.60;7.77;;;19.70;88.40;;;;;;6115403;23;20158;-84
2021/07/23 00:30:50;;;;;;;11.03;8.17;;;19.70;88.40;;;;;;6114894;23;20193;-83
2021/07/23 00:33:19;;;;;;;10.03;7.50;;;19.70;88.40;;;;;;6108585;23;20180;-82
2021/07/23 00:35:47;;;;;;;9.00;7.57;;;19.70;88.30;;;;;;6112070;23;20539;-82
2021/07/23 00:38:16;;;;;;;8.70;7.77;;;19.70;88.50;;;;;;6116773;23;20176;-82
2021/07/23 00:40:44;;;;;;;10.27;7.83;;;19.70;88.40;;;;;;6117273;23;20309;-83
2021/07/23 00:43:13;;;;;;;9.83;7.60;;;19.70;88.50;;;;;;6106406;23;20158;-86
2021/07/23 00:45:42;;;;;;;11.63;7.63;;;19.60;88.50;;;;;;6103785;23;20180;-85
2021/07/23 00:48:14;;;;;;;12.67;7.40;;;19.70;88.70;;;;;;6103295;23;20164;-82
2021/07/23 00:50:43;;;;;;;9.63;7.43;;;19.60;88.70;;;;;;6104491;23;20188;-84
2021/07/23 00:53:12;;;;;;;9.87;7.90;;;19.60;88.90;;;;;;6100608;23;20161;-85
2021/07/23 00:55:42;;;;;;;9.73;7.73;;;19.60;89.20;;;;;;6116546;23;20169;-84
2021/07/23 00:58:11;;;;;;;11.17;7.93;;;19.60;88.70;;;;;;6114697;23;20585;-83
2021/07/23 01:00:40;;;;;;;10.07;7.67;;;19.70;88.90;;;;;;6098498;23;20188;-83
2021/07/23 01:03:09;;;;;;;10.77;7.93;;;19.70;88.80;;;;;;6093610;23;20169;-84
2021/07/23 01:05:39;;;;;;;9.73;7.83;;;19.60;89.10;;;;;;6096166;23;20203;-85
2021/07/23 01:08:08;;;;;;;11.13;7.40;;;19.60;88.90;;;;;;6095318;23;20611;-84
2021/07/23 01:10:39;;;;;;;9.23;7.50;;;19.60;89.00;;;;;;6091379;23;20165;-84
2021/07/23 01:13:07;;;;;;;11.23;7.53;;;19.60;89.00;;;;;;6103996;23;20153;-82
2021/07/23 01:15:36;;;;;;;8.90;7.60;;;19.60;89.00;;;;;;6107315;23;20802;-83
2021/07/23 01:18:05;;;;;;;9.67;7.37;;;19.50;88.70;;;;;;6105700;23;20157;-81
2021/07/23 01:20:34;;;;;;;10.10;7.77;;;19.50;88.80;;;;;;6098995;23;20184;-85
2021/07/23 01:23:07;;;;;;;11.40;7.63;;;19.50;89.00;;;;;;6062842;23;20215;-85
2021/07/23 01:25:38;;;;;;;8.50;7.57;;;19.50;89.00;;;;;;6096674;23;20756;-83
2021/07/23 01:28:07;;;;;;;7.87;7.07;;;19.50;89.00;;;;;;6102763;23;20184;-82
2021/07/23 01:30:37;;;;;;;10.27;7.00;;;19.40;89.10;;;;;;6103201;23;20209;-85
2021/07/23 01:33:05;;;;;;;9.80;7.73;;;19.40;89.00;;;;;;6097774;23;20172;-81
2021/07/23 01:35:34;;;;;;;9.60;7.90;;;19.40;88.90;;;;;;6090109;23;20161;-83
2021/07/23 01:38:06;;;;;;;8.90;7.20;;;19.50;88.80;;;;;;6088731;23;20157;-85
2021/07/23 01:40:36;;;;;;;7.63;6.90;;;19.50;88.90;;;;;;6092718;23;20524;-82
2021/07/23 01:43:05;;;;;;;8.37;7.50;;;19.40;88.70;;;;;;6094807;23;20161;-85
2021/07/23 01:45:33;;;;;;;10.00;7.57;;;19.40;88.80;;;;;;6095690;23;20480;-84
2021/07/23 01:48:02;;;;;;;13.00;7.60;;;19.40;88.90;;;;;;6092152;23;20579;-83
2021/07/23 01:50:31;;;;;;;9.33;7.17;;;19.30;88.90;;;;;;6101939;23;20161;-80
2021/07/23 01:52:59;;;;;;;11.07;7.80;;;19.30;89.10;;;;;;6096089;23;20180;-85
2021/07/23 01:55:28;;;;;;;8.57;7.50;;;19.30;88.90;;;;;;6090455;23;20157;-84
2021/07/23 01:57:59;;;;;;;9.37;7.63;;;19.30;89.10;;;;;;6088411;23;20173;-84
2021/07/23 02:00:27;;;;;;;11.50;8.07;;;19.30;89.30;;;;;;6113454;23;20334;-86
2021/07/23 02:02:56;;;;;;;10.20;7.70;;;19.30;89.10;;;;;;6107997;23;20162;-83
2021/07/23 02:05:25;;;;;;;11.20;8.03;;;19.30;89.10;;;;;;6091360;23;20173;-82
2021/07/23 02:07:53;;;;;;;8.70;7.53;;;19.30;89.50;;;;;;6088159;23;20165;-81
2021/07/23 02:10:22;;;;;;;9.83;7.50;;;19.30;89.40;;;;;;6090842;23;20165;-83
2021/07/23 02:12:51;;;;;;;8.80;7.50;;;19.30;89.30;;;;;;6089821;23;20221;-83
2021/07/23 02:15:21;;;;;;;9.70;7.70;;;19.30;89.50;;;;;;6091076;23;20680;-84
2021/07/23 02:17:51;;;;;;;10.10;8.00;;;19.20;89.50;;;;;;6087886;23;20181;-84
2021/07/23 02:20:20;;;;;;;10.93;8.43;;;19.20;89.60;;;;;;6088625;23;20291;-81
2021/07/23 02:22:49;;;;;;;9.33;8.30;;;19.20;89.80;;;;;;6089973;23;20161;-82
2021/07/23 02:25:18;;;;;;;10.57;8.90;;;19.20;89.90;;;;;;6092668;23;20158;-84
2021/07/23 02:27:46;;;;;;;9.90;8.67;;;19.20;90.00;;;;;;6092906;23;20161;-84
2021/07/23 02:30:15;;;;;;;10.90;8.70;;;19.20;90.00;;;;;;6106724;23;20191;-84
2021/07/23 02:32:45;;;;;;;12.97;8.40;;;19.20;90.10;;;;;;6096540;23;20158;-84
2021/07/23 02:35:14;;;;;;;11.83;8.37;;;19.10;90.10;;;;;;6095888;23;20157;-83
2021/07/23 02:37:43;;;;;;;11.53;8.27;;;19.10;90.20;;;;;;6061431;23;20248;-83
2021/07/23 02:40:13;;;;;;;9.80;8.37;;;19.10;90.20;;;;;;6113272;23;20688;-81
2021/07/23 02:42:41;;;;;;;11.30;8.27;;;19.10;90.20;;;;;;6126796;23;20164;-82
2021/07/23 02:45:10;;;;;;;12.43;9.07;;;19.10;90.10;;;;;;6121532;23;20481;-84
2021/07/23 02:47:40;;;;;;;11.00;8.67;;;19.10;90.10;;;;;;6114474;23;20152;-84
2021/07/23 02:50:11;;;;;;;10.63;8.47;;;19.10;90.10;;;;;;6125175;23;20145;-83
2021/07/23 02:52:39;;;;;;;12.67;8.30;;;19.10;90.10;;;;;;6121351;23;20176;-83
2021/07/23 02:55:09;;;;;;;13.67;8.87;;;19.10;90.30;;;;;;6122228;23;20153;-86
2021/07/23 02:57:37;;;;;;;10.43;8.40;;;19.10;90.30;;;;;;6125504;23;20168;-84
2021/07/23 03:00:07;;;;;;;9.03;7.90;;;19.10;90.40;;;;;;6125338;23;20184;-84
2021/07/23 03:02:36;;;;;;;11.47;8.80;;;19.10;90.40;;;;;;6092508;23;20161;-84
2021/07/23 03:05:05;;;;;;;15.33;9.60;;;19.10;90.40;;;;;;6125242;23;20176;-83
2021/07/23 03:07:35;;;;;;;13.57;9.43;;;19.20;90.30;;;;;;6125928;23;20145;-85
2021/07/23 03:10:04;;;;;;;12.60;9.93;;;19.20;90.40;;;;;;6124495;23;20176;-84
2021/07/23 03:12:34;;;;;;;13.93;11.40;;;19.10;90.40;;;;;;6126208;23;20165;-84
2021/07/23 03:15:04;;;;;;;12.30;10.27;;;19.20;90.30;;;;;;6125579;23;20160;-84
2021/07/23 03:17:34;;;;;;;12.43;10.60;;;19.20;90.30;;;;;;6127136;23;20216;-83
2021/07/23 03:20:03;;;;;;;11.53;9.93;;;19.20;90.30;;;;;;6125074;23;20196;-84
2021/07/23 03:22:31;;;;;;;12.13;9.80;;;19.20;90.20;;;;;;6118303;23;20162;-83
2021/07/23 03:25:02;;;;;;;11.90;10.00;;;19.10;90.20;;;;;;6116921;23;20153;-85
2021/07/23 03:27:30;;;;;;;11.50;9.50;;;19.10;90.40;;;;;;6118229;23;20157;-84
2021/07/23 03:29:59;;;;;;;13.60;9.70;;;19.20;90.40;;;;;;6124039;23;20173;-84
2021/07/23 03:32:27;;;;;;;12.33;9.27;;;19.20;90.50;;;;;;6123449;23;20493;-83
2021/07/23 03:34:56;;;;;;;11.13;8.87;;;19.20;90.50;;;;;;6122334;23;20165;-82
2021/07/23 03:37:25;;;;;;;11.43;9.17;;;19.20;90.40;;;;;;6120544;23;20162;-87
2021/07/23 03:39:54;;;;;;;13.03;9.83;;;19.20;90.40;;;;;;6123513;23;20355;-87
2021/07/23 03:42:24;;;;;;;12.53;9.50;;;19.20;90.40;;;;;;6122236;23;20160;-86
2021/07/23 03:44:53;;;;;;;11.27;8.63;;;19.20;90.00;;;;;;6104821;23;20218;-84
2021/07/23 03:47:22;;;;;;;12.77;9.17;;;19.30;90.20;;;;;;6098333;23;20165;-82
2021/07/23 03:49:51;;;;;;;11.97;9.33;;;19.30;90.10;;;;;;6098991;23;20161;-85
2021/07/23 03:52:20;;;;;;;12.17;9.47;;;19.30;90.00;;;;;;6096130;23;20641;-82
2021/07/23 03:54:49;;;;;;;11.97;9.10;;;19.30;90.10;;;;;;6097438;23;20173;-84
2021/07/23 03:57:18;;;;;;;12.40;9.40;;;19.40;90.00;;;;;;6093364;23;20279;-83
2021/07/23 03:59:48;;;;;;;11.10;9.13;;;19.40;90.00;;;;;;6099537;23;20170;-82
2021/07/23 04:02:17;;;;;;;14.27;9.60;;;19.40;90.00;;;;;;6098423;23;20196;-85
2021/07/23 04:04:46;;;;;;;12.47;8.87;;;19.50;90.00;;;;;;6098655;23;20165;-84
2021/07/23 04:07:14;;;;;;;11.60;9.27;;;19.50;90.00;;;;;;6098262;23;20184;-84
2021/07/23 04:09:44;;;;;;;10.77;8.97;;;19.50;89.50;;;;;;6105519;23;20176;-85
2021/07/23 04:12:13;;;;;;;11.07;9.27;;;19.60;89.40;;;;;;6106464;23;20177;-84
2021/07/23 04:14:41;;;;;;;11.63;8.77;;;19.60;89.20;;;;;;6100428;23;20169;-85
2021/07/23 04:17:12;;;;;;;10.07;9.00;;;19.70;89.20;;;;;;6076261;23;20199;-88
2021/07/23 04:19:40;;;;;;;12.90;9.40;;;19.70;89.30;;;;;;6095194;23;20410;-83
2021/07/23 04:22:09;;;;;;;12.37;8.77;;;19.70;89.60;;;;;;6095544;23;20181;-86
2021/07/23 04:24:38;;;;;;;10.90;9.27;;;19.80;89.40;;;;;;6061432;23;20180;-86
2021/07/23 04:27:07;;;;;;;10.50;8.67;;;19.80;89.50;;;;;;6093445;23;20171;-86
2021/07/23 04:29:35;;;;;;;10.20;9.10;;;19.80;89.10;;;;;;6094794;23;20172;-82
2021/07/23 04:32:05;;;;;;;11.00;8.83;;;19.90;88.70;;;;;;6104175;23;20165;-81
2021/07/23 04:34:35;;;;;;;11.30;8.77;;;19.90;88.40;;;;;;6106546;23;20459;-84
2021/07/23 04:37:04;;;;;;;12.87;9.53;;;19.90;88.60;;;;;;6104112;23;20255;-82
2021/07/23 04:39:33;;;;;;;11.83;9.70;;;19.90;88.80;;;;;;6105069;23;20169;-83
2021/07/23 04:42:05;;;;;;;11.70;9.87;;;20.00;88.70;;;;;;6113251;23;20188;-82
2021/07/23 04:44:35;;;;;;;13.07;10.00;;;20.10;88.50;;;;;;6118233;23;20171;-82
2021/07/23 04:47:04;;;;;;;13.10;9.33;;;20.10;88.40;;;;;;6119384;23;20200;-82
2021/07/23 04:49:35;;;;;;;12.87;9.13;;;20.20;88.40;;;;;;6106012;23;20180;-82
2021/07/23 04:52:05;;;;;;;14.70;10.20;;;20.20;88.40;;;;;;6104783;23;20184;-85
2021/07/23 04:54:33;;;;;;;10.73;8.57;;;20.30;88.20;;;;;;6105956;23;20165;-84
2021/07/23 04:57:02;;;;;;;11.70;9.17;;;20.30;88.30;;;;;;6103715;23;20220;-83
2021/07/23 04:59:32;;;;;;;13.60;8.85;;;20.40;87.80;;;;;;6101131;23;20169;-85
2021/07/23 05:02:00;;;;;;;12.30;10.17;;;20.50;87.80;;;;;;6100830;23;20185;-83
2021/07/23 05:04:30;;;;;;;10.47;9.40;;;20.50;87.50;;;;;;6104674;23;20220;-86
2021/07/23 05:07:00;;;;;;;14.77;10.23;;;20.50;87.50;;;;;;6102971;23;20221;-86
2021/07/23 05:09:29;;;;;;;11.83;9.50;;;20.60;87.60;;;;;;6102239;23;20279;-84
2021/07/23 05:11:58;;;;;;;11.93;9.57;;;20.70;87.60;;;;;;6105448;23;20378;-82
2021/07/23 05:14:31;;;;;;;11.53;9.50;;;20.70;87.60;;;;;;6117346;23;20169;-85
2021/07/23 05:17:01;;;;;;;12.27;9.55;;;20.80;87.20;;;;;;6112630;23;20196;-83
2021/07/23 05:19:31;;;;;;;13.20;9.38;;;20.90;87.10;;;;;;6108996;23;20165;-83
2021/07/23 05:22:02;;;;;;;13.90;9.95;;;20.90;86.90;;;;;;6113274;23;20189;-85
2021/07/23 05:24:32;;;;;;;14.60;9.27;;;21.00;86.90;;;;;;6114001;23;20204;-85
2021/07/23 05:27:01;;;;;;;12.35;8.93;;;21.00;86.50;;;;;;6106671;23;20169;-85
2021/07/23 05:29:32;;;;;;;14.82;9.60;;;21.10;86.40;;;;;;6110555;23;20181;-83
2021/07/23 05:32:00;;;;;;;12.93;9.57;;;21.20;86.30;;;;;;6112614;23;20294;-84
2021/07/23 05:34:33;;;;;;;14.05;9.38;;;21.30;86.20;;;;;;6099601;23;20588;-84
2021/07/23 05:37:09;;;;;;;12.70;9.30;;;21.40;86.10;;;;;;6090772;23;20173;-85
2021/07/23 05:39:41;;;;;;;14.15;9.20;;;21.40;85.80;;;;;;6102325;23;20169;-84
2021/07/23 05:42:10;;;;;;;14.18;9.70;;;21.50;85.90;;;;;;6099091;23;20730;-83
2021/07/23 05:44:39;;;;;;;13.27;9.30;;;21.50;85.70;;;;;;6089726;23;20197;-85
2021/07/23 05:47:09;;;;;;;14.98;9.75;;;21.50;85.70;;;;;;6093078;23;20225;-84
2021/07/23 05:49:38;;;;;;;11.55;8.98;;;21.50;85.70;;;;;;6097199;23;20469;-86
2021/07/23 05:52:24;;;;;;;10.77;9.68;;;21.60;85.90;;;;;;6096711;23;20169;-85
2021/07/23 05:54:56;;;;;;;12.60;9.35;;;21.50;85.90;;;;;;6106003;23;20524;-87
2021/07/23 05:57:26;;;;;;;12.93;9.20;;;21.70;85.70;;;;;;6072739;23;20184;-83
2021/07/23 05:59:57;;;;;;;14.80;9.65;;;21.90;85.70;;;;;;6094137;23;20176;-83
2021/07/23 06:02:26;;;;;;;14.90;9.38;;;22.10;85.60;;;;;;6096990;23;20202;-85
2021/07/23 06:04:57;;;;;;;12.50;9.68;;;22.10;85.20;;;;;;6095904;23;20503;-85
2021/07/23 06:07:34;;;;;;;14.90;9.98;;;22.20;85.00;;;;;;6093003;23;20160;-85
2021/07/23 06:10:03;;;;;;;10.10;8.60;;;22.30;85.10;;;;;;6085375;23;20184;-85
2021/07/23 06:12:35;;;;;;;13.23;9.15;;;22.50;84.50;;;;;;6060008;23;20193;-83
2021/07/23 06:15:05;;;;;;;13.35;8.18;;;22.50;84.50;;;;;;6083273;23;20248;-86
2021/07/23 06:17:35;;;;;;;12.30;8.73;;;22.50;84.40;;;;;;6091866;23;20176;-86
2021/07/23 06:20:06;;;;;;;12.95;9.43;;;22.60;84.70;;;;;;6104631;23;20160;-87
2021/07/23 06:22:42;;;;;;;13.65;9.13;;;22.50;84.20;;;;;;6096541;23;20184;-84
2021/07/23 06:25:18;;;;;;;10.45;8.75;;;22.60;84.20;;;;;;6088924;23;20206;-84
2021/07/23 06:27:48;;;;;;;11.40;8.40;;;22.70;84.00;;;;;;6082968;23;20228;-85
2021/07/23 06:30:17;;;;;;;10.60;8.68;;;22.70;83.50;;;;;;6054654;23;20224;-84
2021/07/23 06:32:54;;;;;;;10.82;8.70;;;22.80;83.70;;;;;;6091313;23;20161;-84
2021/07/23 06:35:24;;;;;;;12.95;9.05;;;23.00;83.70;;;;;;6097107;23;20165;-84
2021/07/23 06:37:54;;;;;;;9.45;7.82;;;23.20;83.50;;;;;;6098405;23;20919;-84
2021/07/23 06:40:25;;;;;;;12.30;8.45;;;23.40;83.40;;;;;;6091588;23;20168;-84
2021/07/23 06:42:54;;;;;;;12.25;7.93;;;23.40;82.90;;;;;;6097293;23;20189;-83
2021/07/23 06:45:23;;;;;;;18.58;8.52;;;23.30;82.60;;;;;;6110541;23;20157;-84
2021/07/23 06:47:53;;;;;;;11.93;7.97;;;23.30;82.80;;;;;;6109232;23;20161;-84
2021/07/23 06:50:24;;;;;;;10.63;8.10;;;23.20;82.70;;;;;;6111949;23;20209;-84
2021/07/23 06:52:55;;;;;;;10.60;8.60;;;23.20;83.00;;;;;;6087914;23;20256;-83
2021/07/23 06:55:25;;;;;;;10.52;8.65;;;23.30;82.40;;;;;;6093054;23;20169;-84
2021/07/23 06:57:54;;;;;;;12.43;8.35;;;23.40;82.50;;;;;;6061610;23;20233;-85
2021/07/23 07:00:23;;;;;;;9.10;7.78;;;23.30;82.20;;;;;;6099097;23;20357;-84
2021/07/23 07:02:53;;;;;;;11.25;7.80;;;23.00;82.00;;;;;;6096868;23;20681;-86
2021/07/23 07:05:24;;;;;;;13.00;6.93;;;23.10;82.10;;;;;;6083612;23;20169;-84
2021/07/23 07:07:55;;;;;;;10.02;7.70;;;23.20;81.90;;;;;;6076719;23;20187;-87
2021/07/23 07:10:24;;;;;;;10.38;6.80;;;23.40;81.60;;;;;;6072410;23;20169;-84
2021/07/23 07:12:57;;;;;;;9.73;7.63;;;23.50;81.70;;;;;;6073249;23;20165;-84
2021/07/23 07:15:31;;;;;;;10.52;7.90;;;23.70;81.90;;;;;;6069534;23;20165;-86
2021/07/23 07:18:02;;;;;;;13.88;8.52;;;23.60;81.70;;;;;;6075414;23;20674;-85
2021/07/23 07:20:34;;;;;;;9.68;8.23;;;23.60;81.90;;;;;;6077471;23;20204;-86
2021/07/23 07:23:05;;;;;;;10.10;7.63;;;23.60;81.60;;;;;;6087878;23;20859;-85
2021/07/23 07:25:38;;;;;;;12.85;7.85;;;23.70;81.90;;;;;;6103335;23;20189;-85
2021/07/23 07:28:07;;;;;;;10.82;7.55;;;23.70;81.50;;;;;;6076529;23;20169;-84
2021/07/23 07:30:56;;;;;;;13.10;8.05;;;23.60;81.10;;;;;;6077155;23;20192;-84
2021/07/23 07:33:25;;;;;;;11.88;7.90;;;23.50;81.20;;;;;;6080783;23;20173;-84
2021/07/23 07:35:53;;;;;;;11.05;8.10;;;23.20;81.30;;;;;;6081002;23;20165;-83
2021/07/23 07:38:24;;;;;;;12.82;8.82;;;23.00;81.40;;;;;;6076906;23;20212;-83
2021/07/23 07:40:53;;;;;;;17.60;8.98;;;22.80;81.90;;;;;;6081709;23;20789;-85
2021/07/23 07:43:22;;;;;;;9.70;7.88;;;22.70;82.00;;;;;;6081709;23;20251;-85
2021/07/23 07:45:53;;;;;;;10.88;8.27;;;22.70;81.90;;;;;;6091444;23;20165;-84
2021/07/23 07:48:22;;;;;;;11.70;7.55;;;22.80;82.00;;;;;;6095287;23;20732;-85
2021/07/23 07:50:51;;;;;;;12.27;8.13;;;23.10;81.80;;;;;;6103184;23;20953;-84
2021/07/23 07:53:20;;;;;;;9.90;7.80;;;23.30;81.40;;;;;;6111228;23;20174;-84
2021/07/23 07:55:50;;;;;;;10.90;7.88;;;23.30;81.40;;;;;;6108998;23;20161;-84
2021/07/23 07:58:20;;;;;;;12.68;8.00;;;23.40;81.50;;;;;;6109979;23;20192;-86
2021/07/23 08:00:49;;;;;;;11.32;7.15;;;23.60;81.10;;;;;;6100089;23;20443;-86
2021/07/23 08:03:18;;;;;;;10.02;7.82;;;23.70;81.00;;;;;;6095188;23;20248;-85
2021/07/23 08:05:48;;;;;;;10.98;7.28;;;23.90;80.20;;;;;;6102585;23;20165;-85
2021/07/23 08:08:17;;;;;;;12.95;7.30;;;23.90;80.20;;;;;;6100448;23;20165;-84
2021/07/23 08:10:47;;;;;;;10.90;7.68;;;24.00;79.90;;;;;;6096945;23;20252;-83
2021/07/23 08:13:18;;;;;;;8.90;6.88;;;24.20;79.60;;;;;;6093040;23;20165;-84
2021/07/23 08:15:50;;;;;;;6.97;6.28;;;24.30;78.60;;;;;;6055897;23;20215;-84
2021/07/23 08:18:24;;;;;;;6.75;5.68;;;24.10;77.00;;;;;;6084599;23;20353;-85
2021/07/23 08:21:03;;;;;;;9.38;6.43;;;24.20;77.00;;;;;;6102347;23;20196;-85
2021/07/23 08:23:38;;;;;;;6.60;5.90;;;24.30;77.10;;;;;;6105129;23;20208;-86
2021/07/23 08:26:10;;;;;;;7.13;6.25;;;24.50;76.70;;;;;;6102163;23;20303;-84
2021/07/23 08:28:41;;;;;;;6.72;5.60;;;24.60;77.00;;;;;;6134639;23;20170;-84
2021/07/23 08:31:10;;;;;;;13.77;6.82;;;24.60;76.20;;;;;;6143939;23;20605;-84
2021/07/23 08:33:42;;;;;;;9.40;7.30;;;24.60;75.90;;;;;;6128495;23;20232;-85
2021/07/23 08:36:11;;;;;;;7.82;5.60;;;24.50;75.90;;;;;;6109706;23;20372;-85
2021/07/23 08:38:40;;;;;;;6.88;5.72;;;24.20;75.90;;;;;;6108352;23;20165;-85
2021/07/23 08:41:12;;;;;;;8.00;5.47;;;24.20;74.80;;;;;;6109343;23;21131;-83
2021/07/23 08:43:48;;;;;;;11.93;5.70;;;24.00;74.60;;;;;;6110700;23;20211;-86
2021/07/23 08:46:17;;;;;;;8.65;5.80;;;24.00;74.50;;;;;;6074127;23;20177;-84
2021/07/23 08:48:46;;;;;;;8.13;5.88;;;24.00;74.80;;;;;;6115616;23;20260;-85
2021/07/23 08:51:19;;;;;;;7.65;5.35;;;24.00;75.40;;;;;;6119908;23;20191;-85
2021/07/23 08:53:48;;;;;;;7.15;6.03;;;24.20;76.50;;;;;;6095737;23;20448;-86
2021/07/23 08:56:17;;;;;;;8.05;5.85;;;24.40;75.00;;;;;;6102445;23;20172;-87
2021/07/23 08:58:48;;;;;;;7.65;6.15;;;24.60;74.50;;;;;;6103751;23;20192;-83
2021/07/23 09:01:17;;;;;;;7.97;6.00;;;24.50;75.10;;;;;;6105675;23;20176;-84
2021/07/23 09:03:48;;;;;;;9.77;7.07;;;24.70;75.50;;;;;;6102608;23;20180;-85
2021/07/23 09:06:17;;;;;;;9.65;6.85;;;24.90;75.30;;;;;;6104923;23;20449;-87
2021/07/23 09:08:48;;;;;;;7.50;6.47;;;25.00;75.30;;;;;;6100800;23;20278;-85
2021/07/23 09:11:27;;;;;;;8.80;6.47;;;24.90;74.40;;;;;;6066373;23;20173;-85
2021/07/23 09:17:00;;;;;;;7.85;6.47;;;25.00;74.60;;;;;;5145653;27;20559;-84
2021/07/23 09:19:29;;;;;;;8.68;6.40;;;25.00;74.70;;;;;;5154429;27;20200;-83
2021/07/23 09:22:00;;;;;;;11.27;7.25;;;25.30;74.50;;;;;;5159649;27;21286;-85
2021/07/23 09:24:50;;;;;;;7.93;6.95;;;25.40;74.40;;;;;;5136153;27;20968;-84
2021/07/23 09:27:33;;;;;;;9.00;6.68;;;25.50;74.60;;;;;;5143366;27;20693;-84
2021/07/23 09:30:07;;;;;;;7.75;6.93;;;25.90;73.90;;;;;;5153997;27;20702;-83
2021/07/23 09:32:40;;;;;;;12.32;7.22;;;25.70;73.40;;;;;;5158661;27;21073;-85
2021/07/23 09:35:11;;;;;;;8.88;7.32;;;25.70;74.30;;;;;;5179496;27;20210;-83
2021/07/23 09:37:55;;;;;;;8.38;7.07;;;25.80;73.80;;;;;;5149196;27;20964;-83
2021/07/23 09:40:25;;;;;;;9.57;7.70;;;25.90;74.80;;;;;;5142242;27;20229;-86
2021/07/23 09:42:57;;;;;;;8.93;7.57;;;26.00;74.40;;;;;;5135483;27;20225;-84
2021/07/23 09:45:28;;;;;;;8.65;7.00;;;26.20;75.40;;;;;;5145723;27;20201;-83
2021/07/23 09:48:11;;;;;;;8.73;7.60;;;26.20;73.70;;;;;;5142723;27;20194;-85
2021/07/23 09:50:44;;;;;;;9.07;7.40;;;26.20;73.60;;;;;;5142110;27;21031;-85
2021/07/23 09:53:19;;;;;;;10.25;7.80;;;26.30;73.60;;;;;;5144066;27;20189;-84
2021/07/23 09:55:49;;;;;;;9.00;7.22;;;26.40;74.10;;;;;;5143165;27;20217;-83
2021/07/23 09:58:21;;;;;;;10.60;7.40;;;26.30;74.10;;;;;;5148373;27;20224;-85
2021/07/23 10:00:56;;;;;;;9.65;7.60;;;26.20;73.60;;;;;;5143367;27;20202;-86
2021/07/23 10:03:29;;;;;;;8.93;7.75;;;26.20;73.00;;;;;;5154522;27;20282;-86
2021/07/23 10:06:04;;;;;;;8.93;7.97;;;26.00;73.80;;;;;;5148976;27;20193;-83
2021/07/23 10:08:34;;;;;;;9.57;7.22;;;25.80;74.20;;;;;;5152104;27;20294;-85
2021/07/23 10:11:06;;;;;;;8.55;7.57;;;25.70;74.50;;;;;;5156096;27;20368;-84
2021/07/23 10:13:39;;;;;;;10.05;8.07;;;25.50;74.00;;;;;;5161662;27;20216;-83
2021/07/23 10:16:10;;;;;;;10.25;7.82;;;25.40;74.60;;;;;;5155284;27;21291;-87
2021/07/23 10:18:41;;;;;;;8.98;7.75;;;25.50;75.20;;;;;;5156059;27;20216;-84
2021/07/23 10:21:10;;;;;;;9.60;7.57;;;25.50;74.50;;;;;;5163288;27;20202;-84
2021/07/23 10:23:43;;;;;;;11.02;7.90;;;25.40;74.30;;;;;;5172253;27;20397;-83
2021/07/23 10:26:13;;;;;;;8.98;7.97;;;25.40;74.50;;;;;;5159648;27;20774;-86
2021/07/23 10:29:00;;;;;;;8.45;7.60;;;25.50;74.50;;;;;;5155857;27;20201;-85
2021/07/23 10:31:46;;;;;;;10.85;7.95;;;25.50;74.70;;;;;;5159613;27;20209;-84
2021/07/23 10:34:37;;;;;;;10.40;8.13;;;25.70;75.20;;;;;;5149682;27;20231;-83
2021/07/23 10:37:06;;;;;;;11.20;8.23;;;25.70;74.50;;;;;;5138799;27;20777;-84
2021/07/23 10:39:35;;;;;;;9.05;7.55;;;25.80;74.20;;;;;;5160144;27;20204;-84
2021/07/23 10:42:35;;;;;;;11.75;7.95;;;26.00;74.00;;;;;;5148963;27;20220;-84
2021/07/23 10:45:06;;;;;;;8.77;7.30;;;26.10;74.40;;;;;;5127771;27;20198;-85
2021/07/23 10:47:45;;;;;;;10.40;7.60;;;26.40;74.00;;;;;;5127894;27;20217;-85
2021/07/23 10:50:51;;;;;;;10.57;7.35;;;26.60;73.60;;;;;;5132362;27;20487;-84
2021/07/23 10:53:37;;;;;;;10.50;7.70;;;26.90;73.10;;;;;;5141348;27;20707;-83
2021/07/23 10:56:06;;;;;;;8.55;7.18;;;26.60;72.90;;;;;;5157190;27;21219;-84
2021/07/23 10:58:36;;;;;;;10.23;8.10;;;26.60;72.30;;;;;;5148573;27;20228;-85
2021/07/23 11:01:06;;;;;;;10.85;8.13;;;26.70;72.20;;;;;;5140149;27;20972;-84
2021/07/23 11:03:48;;;;;;;10.10;7.63;;;26.70;73.10;;;;;;5141834;27;20202;-85
2021/07/23 11:06:20;;;;;;;9.15;7.95;;;26.90;73.20;;;;;;5156369;27;20209;-87
2021/07/23 11:08:52;;;;;;;10.60;8.57;;;27.10;72.50;;;;;;5161011;27;20182;-86
2021/07/23 11:11:22;;;;;;;9.38;8.20;;;26.80;72.80;;;;;;5145921;27;20199;-84
2021/07/23 11:13:51;;;;;;;9.48;8.25;;;26.80;72.50;;;;;;5150860;27;20524;-85
2021/07/23 11:16:26;;;;;;;10.25;8.00;;;26.60;73.20;;;;;;5160933;27;20222;-86
2021/07/23 11:18:57;;;;;;;11.80;8.77;;;26.50;73.40;;;;;;5156569;27;20210;-86
2021/07/23 11:21:36;;;;;;;9.68;8.13;;;26.40;73.20;;;;;;5159013;27;20576;-84
2021/07/23 11:24:10;;;;;;;9.15;7.85;;;26.40;74.10;;;;;;5158236;27;20195;-85
2021/07/23 11:26:40;;;;;;;9.65;8.07;;;26.10;72.20;;;;;;5135738;27;20209;-85
2021/07/23 11:29:09;;;;;;;10.18;7.50;;;25.90;72.30;;;;;;5145189;27;20849;-87
2021/07/23 11:31:40;;;;;;;9.05;7.85;;;25.70;72.30;;;;;;5134609;27;20840;-85
2021/07/23 11:34:23;;;;;;;9.13;7.40;;;25.40;73.70;;;;;;5132732;27;20210;-84
2021/07/23 11:36:54;;;;;;;8.93;7.95;;;25.10;73.50;;;;;;5124818;27;20229;-84
2021/07/23 11:39:24;;;;;;;8.85;7.68;;;25.00;74.20;;;;;;5130536;27;20650;-84
2021/07/23 11:42:00;;;;;;;10.05;7.75;;;24.70;75.10;;;;;;5134892;27;20190;-84
2021/07/23 11:44:33;;;;;;;8.85;7.95;;;24.60;74.80;;;;;;5158072;27;20206;-85
2021/07/23 11:47:02;;;;;;;9.80;8.32;;;24.40;75.40;;;;;;5135107;27;20203;-84
2021/07/23 11:49:33;;;;;;;14.07;8.85;;;24.30;75.80;;;;;;5135914;27;20270;-83
2021/07/23 11:52:05;;;;;;;11.30;8.07;;;24.20;75.10;;;;;;5146566;27;20257;-84
2021/07/23 11:54:34;;;;;;;12.20;8.40;;;24.10;75.70;;;;;;5150360;27;20198;-86
2021/07/23 11:57:05;;;;;;;13.27;8.43;;;23.90;76.70;;;;;;5136519;27;20221;-85
2021/07/23 11:59:38;;;;;;;9.30;8.10;;;23.80;76.60;;;;;;5135876;27;20194;-86
2021/07/23 12:02:11;;;;;;;9.20;8.10;;;23.80;76.50;;;;;;5146981;27;20198;-86
2021/07/23 12:04:42;;;;;;;9.50;8.02;;;23.70;77.60;;;;;;5152176;27;20222;-85
2021/07/23 12:07:18;;;;;;;11.52;7.68;;;23.60;77.50;;;;;;5146864;27;20205;-85
2021/07/23 12:09:48;;;;;;;11.48;7.95;;;23.50;77.80;;;;;;5145770;27;20199;-85
2021/07/23 12:12:19;;;;;;;13.32;8.25;;;23.40;78.30;;;;;;5145210;27;20207;-86
2021/07/23 12:14:48;;;;;;;11.05;8.27;;;23.30;78.40;;;;;;5162989;27;20214;-86
2021/07/23 12:17:17;;;;;;;11.15;8.02;;;23.20;78.00;;;;;;5161833;27;20203;-86
2021/07/23 12:19:57;;;;;;;10.02;7.80;;;23.20;78.20;;;;;;5135844;27;20250;-84
2021/07/23 12:22:28;;;;;;;10.63;8.13;;;23.20;78.20;;;;;;5142837;27;20593;-84
2021/07/23 12:24:59;;;;;;;9.27;7.80;;;23.20;78.10;;;;;;5154685;27;20297;-86
2021/07/23 12:27:28;;;;;;;10.82;8.57;;;23.20;78.40;;;;;;5152204;27;20187;-85
2021/07/23 12:29:58;;;;;;;9.07;8.10;;;23.20;78.30;;;;;;5144264;27;20194;-86
2021/07/23 12:32:28;;;;;;;11.02;8.40;;;23.30;78.40;;;;;;5134539;27;20205;-84
2021/07/23 12:34:57;;;;;;;9.30;8.30;;;23.30;78.10;;;;;;5125331;27;20294;-83
2021/07/23 12:37:29;;;;;;;9.05;7.93;;;23.30;78.10;;;;;;5124976;27;20323;-85
2021/07/23 12:40:01;;;;;;;8.82;7.80;;;23.40;78.40;;;;;;5133327;27;21003;-83
2021/07/23 12:42:31;;;;;;;11.38;8.40;;;23.40;78.40;;;;;;5132980;27;20293;-83
2021/07/23 12:45:00;;;;;;;8.63;7.45;;;23.50;78.30;;;;;;5128554;27;20268;-84
2021/07/23 12:47:29;;;;;;;9.05;8.00;;;23.50;78.30;;;;;;5132343;27;20195;-82
2021/07/23 12:49:59;;;;;;;11.80;8.48;;;23.50;78.00;;;;;;5154390;27;20203;-85
2021/07/23 12:52:30;;;;;;;8.35;7.50;;;23.60;77.80;;;;;;5148155;27;20195;-83
2021/07/23 12:55:05;;;;;;;9.68;7.80;;;23.70;77.60;;;;;;5154697;27;20415;-83
2021/07/23 12:57:34;;;;;;;10.32;7.78;;;23.80;77.50;;;;;;5162572;27;20217;-85
2021/07/23 13:00:20;;;;;;;10.95;8.00;;;24.00;77.60;;;;;;5160009;27;20205;-84
2021/07/23 13:02:57;;;;;;;8.85;7.75;;;24.20;77.50;;;;;;5149552;27;20202;-84